Аэропорт: Жезказган. Жезказган

ICAO: UAKD

METAR:
2024-02-26 23:00:00
UAKD 262300Z 07005MPS 9999 OVC012 M11/M14 Q1035 NOSIG RMK QFE742/0989
TAF:
2024-02-26 23:02:00
TAF UAKD 262302Z 2700/2709 06005MPS 3100 BR BKN005 BKN011 
  TEMPO 2700/2705 0300 -SN FZFG VV001